^^
Saratoga-Weather Station Historical Data
Daily Summary for March 14, 2020 Units:  Both    English   Metric
Daily Weekly Monthly Yearly Custom
  High: Low: Average:
Temperature: 49.8 °F /  9.9 °C 42.3 °F /  5.7 °C 45.7 °F /  7.6 °C
Dew Point: 44.1 °F /  6.7 °C 40.1 °F /  4.5 °C 42.1 °F /  5.6 °C
Humidity: 94% 77% 87%
Wind Speed: 14.1mph /  22.7km/h - 3mph /  4.9km/h
Wind Gust: 17mph /  27.4km/h - -
Wind- - West
Pressure: 30.3 in /  1025.4 hPa 29.8 in /  1008.5 hPa -
Precipitation: 0.01 in /  0.2 mm    
Historical Graphs
 
 
Tabular Data for March 14, 2020
Time Temperature Dew Point Pressure Wind Wind Speed Wind Gust Humidity Rainfall Rate (Hourly) solar
00:03 45 °F /  7.2 °C 41.5 °F /  5.3 °C 29.8in /  1008.5hPa West 13mph /  20.9km/h 13mph /  20.9km/h 88% 0in /  0.0mm 0 W/m2
00:08 45 °F /  7.2 °C 41.9 °F /  5.5 °C 29.8in /  1008.5hPa North 4.9mph /  7.9km/h 16mph /  25.7km/h 89% 0in /  0.0mm 0 W/m2
00:13 45 °F /  7.2 °C 41.9 °F /  5.5 °C 29.8in /  1008.8hPa WSW 4.9mph /  7.9km/h 12mph /  19.3km/h 89% 0in /  0.0mm 0 W/m2
00:18 45 °F /  7.2 °C 41.9 °F /  5.5 °C 29.8in /  1009.1hPa NW 10.1mph /  16.3km/h 14mph /  22.5km/h 89% 0in /  0.0mm 0 W/m2
00:23 45 °F /  7.2 °C 41.9 °F /  5.5 °C 29.8in /  1008.8hPa West 4mph /  6.4km/h 11mph /  17.7km/h 89% 0in /  0.0mm 0 W/m2
00:28 45 °F /  7.2 °C 41.9 °F /  5.5 °C 29.8in /  1009.1hPa NNW 4mph /  6.4km/h 14mph /  22.5km/h 89% 0in /  0.0mm 0 W/m2
00:33 45 °F /  7.2 °C 41.9 °F /  5.5 °C 29.8in /  1009.1hPa West 2.9mph /  4.7km/h 14mph /  22.5km/h 89% 0in /  0.0mm 0 W/m2
00:38 45 °F /  7.2 °C 41.9 °F /  5.5 °C 29.8in /  1009.5hPa WNW 6.9mph /  11.1km/h 14mph /  22.5km/h 89% 0in /  0.0mm 0 W/m2
00:43 44.8 °F /  7.1 °C 41.7 °F /  5.4 °C 29.8in /  1009.8hPa WNW 8.1mph /  13km/h 14mph /  22.5km/h 89% 0in /  0.0mm 0 W/m2
00:48 45 °F /  7.2 °C 41.9 °F /  5.5 °C 29.8in /  1009.8hPa West 8.1mph /  13km/h 11mph /  17.7km/h 89% 0in /  0.0mm 0 W/m2
00:53 45 °F /  7.2 °C 41.9 °F /  5.5 °C 29.8in /  1009.8hPa West 6mph /  9.7km/h 10mph /  16.1km/h 89% 0in /  0.0mm 0 W/m2
00:58 44.8 °F /  7.1 °C 41.7 °F /  5.4 °C 29.8in /  1010.2hPa West 8.9mph /  14.3km/h 12mph /  19.3km/h 89% 0in /  0.0mm 0 W/m2
01:03 44.8 °F /  7.1 °C 41.7 °F /  5.4 °C 29.8in /  1010.2hPa West 8.1mph /  13km/h 13mph /  20.9km/h 89% 0in /  0.0mm 0 W/m2
01:08 44.8 °F /  7.1 °C 41.4 °F /  5.2 °C 29.8in /  1010.2hPa WSW 6mph /  9.7km/h 11mph /  17.7km/h 88% 0in /  0.0mm 0 W/m2
01:13 44.8 °F /  7.1 °C 41.4 °F /  5.2 °C 29.8in /  1010.2hPa West 6.9mph /  11.1km/h 10mph /  16.1km/h 88% 0in /  0.0mm 0 W/m2
01:18 44.6 °F /  7 °C 41.2 °F /  5.1 °C 29.8in /  1010.5hPa West 8.1mph /  13km/h 11mph /  17.7km/h 88% 0in /  0.0mm 0 W/m2
01:23 44.4 °F /  6.9 °C 41.4 °F /  5.2 °C 29.9in /  1010.8hPa NW 10.1mph /  16.3km/h 16mph /  25.7km/h 89% 0in /  0.0mm 0 W/m2
01:28 44.4 °F /  6.9 °C 41.4 °F /  5.2 °C 29.9in /  1010.8hPa WNW 4mph /  6.4km/h 11mph /  17.7km/h 89% 0in /  0.0mm 0 W/m2
01:33 44.4 °F /  6.9 °C 41.7 °F /  5.4 °C 29.9in /  1010.8hPa SW 8.1mph /  13km/h 17mph /  27.4km/h 90% 0in /  0.0mm 0 W/m2
01:38 44.4 °F /  6.9 °C 41.7 °F /  5.4 °C 29.9in /  1010.8hPa West 4mph /  6.4km/h 14mph /  22.5km/h 90% 0in /  0.0mm 0 W/m2
01:43 44.4 °F /  6.9 °C 41.7 °F /  5.4 °C 29.9in /  1011.2hPa West 6.9mph /  11.1km/h 9mph /  14.5km/h 90% 0in /  0.0mm 0 W/m2
01:48 44.4 °F /  6.9 °C 41.7 °F /  5.4 °C 29.9in /  1011.2hPa WNW 6.9mph /  11.1km/h 11mph /  17.7km/h 90% 0in /  0.0mm 0 W/m2
01:53 44.4 °F /  6.9 °C 41.7 °F /  5.4 °C 29.9in /  1011.5hPa WSW 8.1mph /  13km/h 13mph /  20.9km/h 90% 0in /  0.0mm 0 W/m2
01:59 44.6 °F /  7 °C 41.9 °F /  5.5 °C 29.9in /  1011.5hPa WSW 10.1mph /  16.3km/h 12mph /  19.3km/h 90% 0in /  0.0mm 0 W/m2
02:04 44.8 °F /  7.1 °C 42.1 °F /  5.6 °C 29.9in /  1011.9hPa West 10.1mph /  16.3km/h 16mph /  25.7km/h 90% 0in /  0.0mm 0 W/m2
02:09 44.8 °F /  7.1 °C 42.1 °F /  5.6 °C 29.9in /  1011.9hPa West 4mph /  6.4km/h 10mph /  16.1km/h 90% 0in /  0.0mm 0 W/m2
02:14 44.8 °F /  7.1 °C 42.1 °F /  5.6 °C 29.9in /  1011.9hPa West 6.9mph /  11.1km/h 12mph /  19.3km/h 90% 0in /  0.0mm 0 W/m2
02:19 44.6 °F /  7 °C 41.9 °F /  5.5 °C 29.9in /  1012.2hPa NW 4mph /  6.4km/h 13mph /  20.9km/h 90% 0in /  0.0mm 0 W/m2
02:24 44.8 °F /  7.1 °C 42.1 °F /  5.6 °C 29.9in /  1012.2hPa West 6mph /  9.7km/h 11mph /  17.7km/h 90% 0in /  0.0mm 0 W/m2
02:29 44.8 °F /  7.1 °C 42.1 °F /  5.6 °C 29.9in /  1012.5hPa WNW 4.9mph /  7.9km/h 13mph /  20.9km/h 90% 0in /  0.0mm 0 W/m2
02:34 44.6 °F /  7 °C 41.9 °F /  5.5 °C 29.9in /  1012.5hPa NW 8.1mph /  13km/h 8mph /  12.9km/h 90% 0in /  0.0mm 0 W/m2
02:39 44.6 °F /  7 °C 41.9 °F /  5.5 °C 29.9in /  1012.9hPa SW 4mph /  6.4km/h 12mph /  19.3km/h 90% 0in /  0.0mm 0 W/m2
02:44 44.6 °F /  7 °C 41.9 °F /  5.5 °C 29.9in /  1012.9hPa WSW 4mph /  6.4km/h 8mph /  12.9km/h 90% 0in /  0.0mm 0 W/m2
02:49 44.6 °F /  7 °C 41.9 °F /  5.5 °C 29.9in /  1012.9hPa West 6.9mph /  11.1km/h 8mph /  12.9km/h 90% 0in /  0.0mm 0 W/m2
02:54 44.6 °F /  7 °C 41.9 °F /  5.5 °C 29.9in /  1012.9hPa NW 6.9mph /  11.1km/h 10mph /  16.1km/h 90% 0in /  0.0mm 0 W/m2
02:59 44.6 °F /  7 °C 41.9 °F /  5.5 °C 29.9in /  1012.9hPa West 10.1mph /  16.3km/h 12mph /  19.3km/h 90% 0in /  0.0mm 0 W/m2
03:04 44.6 °F /  7 °C 41.9 °F /  5.5 °C 29.9in /  1012.9hPa NW 8.1mph /  13km/h 9mph /  14.5km/h 90% 0in /  0.0mm 0 W/m2
03:09 44.4 °F /  6.9 °C 41.7 °F /  5.4 °C 29.9in /  1013.2hPa WSW 2mph /  3.2km/h 6mph /  9.7km/h 90% 0in /  0.0mm 0 W/m2
03:14 44.4 °F /  6.9 °C 41.7 °F /  5.4 °C 29.9in /  1013.2hPa West 6.9mph /  11.1km/h 7mph /  11.3km/h 90% 0in /  0.0mm 0 W/m2
03:19 44.4 °F /  6.9 °C 41.7 °F /  5.4 °C 29.9in /  1013.2hPa West 6.9mph /  11.1km/h 9mph /  14.5km/h 90% 0in /  0.0mm 0 W/m2
03:24 44.4 °F /  6.9 °C 41.7 °F /  5.4 °C 29.9in /  1013.2hPa West 11mph /  17.7km/h 11mph /  17.7km/h 90% 0in /  0.0mm 0 W/m2
03:29 44.4 °F /  6.9 °C 41.7 °F /  5.4 °C 29.9in /  1013.2hPa West 4mph /  6.4km/h 7mph /  11.3km/h 90% 0in /  0.0mm 0 W/m2
03:34 44.4 °F /  6.9 °C 41.7 °F /  5.4 °C 29.9in /  1013.2hPa WSW 8.1mph /  13km/h 11mph /  17.7km/h 90% 0in /  0.0mm 0 W/m2
03:39 44.4 °F /  6.9 °C 41.7 °F /  5.4 °C 29.9in /  1013.2hPa West 6.9mph /  11.1km/h 8mph /  12.9km/h 90% 0in /  0.0mm 0 W/m2
03:44 44.4 °F /  6.9 °C 41.7 °F /  5.4 °C 29.9in /  1013.5hPa West 8.9mph /  14.3km/h 9mph /  14.5km/h 90% 0in /  0.0mm 0 W/m2
03:49 44.2 °F /  6.8 °C 41.5 °F /  5.3 °C 29.9in /  1013.2hPa West 2.9mph /  4.7km/h 10mph /  16.1km/h 90% 0in /  0.0mm 0 W/m2
03:54 44.2 °F /  6.8 °C 41.5 °F /  5.3 °C 29.9in /  1013.5hPa WSW 2mph /  3.2km/h 11mph /  17.7km/h 90% 0in /  0.0mm 0 W/m2
03:59 44.1 °F /  6.7 °C 41.4 °F /  5.2 °C 29.9in /  1013.5hPa West 6.9mph /  11.1km/h 9mph /  14.5km/h 90% 0in /  0.0mm 0 W/m2
04:04 44.1 °F /  6.7 °C 41.4 °F /  5.2 °C 29.9in /  1013.5hPa WSW 8.9mph /  14.3km/h 12mph /  19.3km/h 90% 0in /  0.0mm 0 W/m2
04:09 44.1 °F /  6.7 °C 41.4 °F /  5.2 °C 29.9in /  1013.9hPa West 8.9mph /  14.3km/h 9mph /  14.5km/h 90% 0in /  0.0mm 0 W/m2
04:14 44.2 °F /  6.8 °C 41.5 °F /  5.3 °C 29.9in /  1013.9hPa West 6.9mph /  11.1km/h 12mph /  19.3km/h 90% 0in /  0.0mm 0 W/m2
04:19 44.2 °F /  6.8 °C 41.5 °F /  5.3 °C 30in /  1014.2hPa NNW 2.9mph /  4.7km/h 9mph /  14.5km/h 90% 0in /  0.0mm 0 W/m2
04:24 44.2 °F /  6.8 °C 41.5 °F /  5.3 °C 30in /  1014.2hPa NW 4mph /  6.4km/h 7mph /  11.3km/h 90% 0in /  0.0mm 0 W/m2
04:29 44.2 °F /  6.8 °C 41.5 °F /  5.3 °C 30in /  1014.2hPa South 6mph /  9.7km/h 9mph /  14.5km/h 90% 0in /  0.0mm 0 W/m2
04:34 44.1 °F /  6.7 °C 41.4 °F /  5.2 °C 30in /  1014.2hPa West 4mph /  6.4km/h 7mph /  11.3km/h 90% 0in /  0.0mm 0 W/m2
04:39 44.1 °F /  6.7 °C 41.4 °F /  5.2 °C 30in /  1014.6hPa WNW 4.9mph /  7.9km/h 7mph /  11.3km/h 90% 0in /  0.0mm 0 W/m2
04:44 44.1 °F /  6.7 °C 41.4 °F /  5.2 °C 30in /  1014.6hPa West 2.9mph /  4.7km/h 8mph /  12.9km/h 90% 0in /  0.0mm 0 W/m2
04:49 44.1 °F /  6.7 °C 41.5 °F /  5.3 °C 30in /  1014.6hPa West 6mph /  9.7km/h 12mph /  19.3km/h 91% 0in /  0.0mm 0 W/m2
04:54 44.1 °F /  6.7 °C 41.4 °F /  5.2 °C 30in /  1014.6hPa NW 2.9mph /  4.7km/h 6mph /  9.7km/h 90% 0in /  0.0mm 0 W/m2
04:59 44.1 °F /  6.7 °C 41.5 °F /  5.3 °C 30in /  1014.9hPa WNW 2.9mph /  4.7km/h 12mph /  19.3km/h 91% 0in /  0.0mm 0 W/m2
05:04 44.1 °F /  6.7 °C 41.5 °F /  5.3 °C 30in /  1014.9hPa WSW 6.9mph /  11.1km/h 7mph /  11.3km/h 91% 0in /  0.0mm 0 W/m2
05:09 44.1 °F /  6.7 °C 41.5 °F /  5.3 °C 30in /  1014.9hPa WSW 4mph /  6.4km/h 9mph /  14.5km/h 91% 0in /  0.0mm 0 W/m2
05:14 43.9 °F /  6.6 °C 41.4 °F /  5.2 °C 30in /  1015.2hPa SSW 4mph /  6.4km/h 8mph /  12.9km/h 91% 0in /  0.0mm 0 W/m2
05:19 43.9 °F /  6.6 °C 41.4 °F /  5.2 °C 30in /  1015.2hPa West 6.9mph /  11.1km/h 9mph /  14.5km/h 91% 0in /  0.0mm 0 W/m2
05:24 43.9 °F /  6.6 °C 41.4 °F /  5.2 °C 30in /  1015.2hPa WSW 2.9mph /  4.7km/h 5mph /  8km/h 91% 0in /  0.0mm 0 W/m2
05:29 43.9 °F /  6.6 °C 41.4 °F /  5.2 °C 30in /  1015.6hPa SW 4mph /  6.4km/h 5mph /  8km/h 91% 0.01in /  0.2mm 0 W/m2
05:34 43.9 °F /  6.6 °C 41.4 °F /  5.2 °C 30in /  1015.6hPa WNW 4mph /  6.4km/h 7mph /  11.3km/h 91% 0.01in /  0.2mm 0 W/m2
05:39 43.9 °F /  6.6 °C 41.4 °F /  5.2 °C 30in /  1015.9hPa WSW 14.1mph /  22.7km/h 14mph /  22.5km/h 91% 0.01in /  0.2mm 0 W/m2
05:44 43.9 °F /  6.6 °C 41.4 °F /  5.2 °C 30in /  1015.9hPa West 6.9mph /  11.1km/h 9mph /  14.5km/h 91% 0.01in /  0.2mm 0 W/m2
05:49 43.9 °F /  6.6 °C 41.4 °F /  5.2 °C 30in /  1015.9hPa WNW 11mph /  17.7km/h 12mph /  19.3km/h 91% 0.01in /  0.2mm 0 W/m2
05:54 44.1 °F /  6.7 °C 41.5 °F /  5.3 °C 30in /  1015.9hPa WSW 4.9mph /  7.9km/h 11mph /  17.7km/h 91% 0.01in /  0.2mm 0 W/m2
05:59 43.9 °F /  6.6 °C 41.4 °F /  5.2 °C 30in /  1015.9hPa WSW 8.1mph /  13km/h 8mph /  12.9km/h 91% 0.01in /  0.2mm 0 W/m2
06:04 43.9 °F /  6.6 °C 41.4 °F /  5.2 °C 30in /  1016.3hPa NNW 4.9mph /  7.9km/h 8mph /  12.9km/h 91% 0.01in /  0.2mm 0 W/m2
06:09 43.7 °F /  6.5 °C 41 °F /  5 °C 30in /  1016.3hPa WSW 6.9mph /  11.1km/h 11mph /  17.7km/h 90% 0.01in /  0.2mm 0 W/m2
06:15 43.9 °F /  6.6 °C 41.2 °F /  5.1 °C 30in /  1016.3hPa West 6.9mph /  11.1km/h 8mph /  12.9km/h 90% 0.01in /  0.2mm 0 W/m2
06:20 43.9 °F /  6.6 °C 41.2 °F /  5.1 °C 30in /  1016.3hPa West 8.9mph /  14.3km/h 12mph /  19.3km/h 90% 0.01in /  0.2mm 0 W/m2
06:25 43.9 °F /  6.6 °C 41.2 °F /  5.1 °C 30in /  1016.6hPa West 6.9mph /  11.1km/h 9mph /  14.5km/h 90% 0.01in /  0.2mm 0 W/m2
06:30 43.9 °F /  6.6 °C 41.2 °F /  5.1 °C 30in /  1016.6hPa WSW 4mph /  6.4km/h 11mph /  17.7km/h 90% 0in /  0.0mm 0 W/m2
06:35 43.7 °F /  6.5 °C 41 °F /  5 °C 30in /  1016.6hPa West 2mph /  3.2km/h 7mph /  11.3km/h 90% 0in /  0.0mm 0 W/m2
06:40 43.5 °F /  6.4 °C 40.8 °F /  4.9 °C 30in /  1016.9hPa West 2.9mph /  4.7km/h 10mph /  16.1km/h 90% 0in /  0.0mm 0 W/m2
06:45 43.5 °F /  6.4 °C 40.8 °F /  4.9 °C 30in /  1016.9hPa WNW 4.9mph /  7.9km/h 9mph /  14.5km/h 90% 0in /  0.0mm 0 W/m2
06:50 43.5 °F /  6.4 °C 40.8 °F /  4.9 °C 30in /  1017.3hPa West 0.9mph /  1.4km/h 3mph /  4.8km/h 90% 0in /  0.0mm 0 W/m2
06:55 43.7 °F /  6.5 °C 41 °F /  5 °C 30in /  1017.3hPa WSW 2.9mph /  4.7km/h 5mph /  8km/h 90% 0in /  0.0mm 0 W/m2
07:00 43.5 °F /  6.4 °C 40.8 °F /  4.9 °C 30in /  1017.3hPa SSW 4mph /  6.4km/h 6mph /  9.7km/h 90% 0in /  0.0mm 0 W/m2
07:05 43.5 °F /  6.4 °C 40.8 °F /  4.9 °C 30in /  1017.3hPa West 2.9mph /  4.7km/h 8mph /  12.9km/h 90% 0in /  0.0mm 0 W/m2
07:10 43.5 °F /  6.4 °C 40.8 °F /  4.9 °C 30.1in /  1017.6hPa WNW 2.9mph /  4.7km/h 7mph /  11.3km/h 90% 0in /  0.0mm 0 W/m2
07:15 43.5 °F /  6.4 °C 40.8 °F /  4.9 °C 30.1in /  1017.6hPa WSW 4mph /  6.4km/h 10mph /  16.1km/h 90% 0in /  0.0mm 0 W/m2
07:20 43.5 °F /  6.4 °C 40.8 °F /  4.9 °C 30.1in /  1017.6hPa WNW 2.9mph /  4.7km/h 5mph /  8km/h 90% 0in /  0.0mm 0 W/m2
07:25 43.3 °F /  6.3 °C 40.8 °F /  4.9 °C 30.1in /  1017.6hPa WNW 8.1mph /  13km/h 11mph /  17.7km/h 91% 0in /  0.0mm 0 W/m2
07:30 43.3 °F /  6.3 °C 40.6 °F /  4.8 °C 30.1in /  1017.6hPa WNW 4mph /  6.4km/h 4mph /  6.4km/h 90% 0in /  0.0mm 0 W/m2
07:35 43.3 °F /  6.3 °C 40.6 °F /  4.8 °C 30.1in /  1018.0hPa WSW 8.1mph /  13km/h 8mph /  12.9km/h 90% 0in /  0.0mm 0 W/m2
07:40 43.2 °F /  6.2 °C 40.5 °F /  4.7 °C 30.1in /  1018.3hPa West 6.9mph /  11.1km/h 8mph /  12.9km/h 90% 0in /  0.0mm 0 W/m2
07:45 43.2 °F /  6.2 °C 40.5 °F /  4.7 °C 30.1in /  1018.3hPa West 4mph /  6.4km/h 4mph /  6.4km/h 90% 0in /  0.0mm 0 W/m2
07:50 43.2 °F /  6.2 °C 40.5 °F /  4.7 °C 30.1in /  1018.6hPa WSW 4.9mph /  7.9km/h 8mph /  12.9km/h 90% 0in /  0.0mm 5 W/m2
07:55 43.2 °F /  6.2 °C 40.5 °F /  4.7 °C 30.1in /  1018.6hPa West 2mph /  3.2km/h 3mph /  4.8km/h 90% 0in /  0.0mm 5 W/m2
08:00 43.2 °F /  6.2 °C 40.6 °F /  4.8 °C 30.1in /  1018.6hPa WNW 2mph /  3.2km/h 9mph /  14.5km/h 91% 0in /  0.0mm 7 W/m2
08:05 43.3 °F /  6.3 °C 40.8 °F /  4.9 °C 30.1in /  1018.6hPa West 4mph /  6.4km/h 8mph /  12.9km/h 91% 0in /  0.0mm 9 W/m2
08:10 43.3 °F /  6.3 °C 40.8 °F /  4.9 °C 30.1in /  1019.0hPa WSW 2mph /  3.2km/h 9mph /  14.5km/h 91% 0in /  0.0mm 9 W/m2
08:15 43.5 °F /  6.4 °C 40.8 °F /  4.9 °C 30.1in /  1019.0hPa WNW 0.9mph /  1.4km/h 4mph /  6.4km/h 90% 0in /  0.0mm 12 W/m2
08:20 43.5 °F /  6.4 °C 40.8 °F /  4.9 °C 30.1in /  1019.3hPa South 0.9mph /  1.4km/h 4mph /  6.4km/h 90% 0in /  0.0mm 16 W/m2
08:26 43.5 °F /  6.4 °C 40.8 °F /  4.9 °C 30.1in /  1019.6hPa WSW 2mph /  3.2km/h 8mph /  12.9km/h 90% 0in /  0.0mm 16 W/m2
08:31 43.5 °F /  6.4 °C 40.8 °F /  4.9 °C 30.1in /  1019.6hPa SW 2mph /  3.2km/h 3mph /  4.8km/h 90% 0in /  0.0mm 19 W/m2
08:36 43.7 °F /  6.5 °C 41 °F /  5 °C 30.1in /  1019.6hPa SW 0.9mph /  1.4km/h 5mph /  8km/h 90% 0in /  0.0mm 25 W/m2
08:41 43.9 °F /  6.6 °C 41.2 °F /  5.1 °C 30.1in /  1019.6hPa West 0.9mph /  1.4km/h 3mph /  4.8km/h 90% 0in /  0.0mm 28 W/m2
08:46 43.9 °F /  6.6 °C 41.4 °F /  5.2 °C 30.1in /  1020.0hPa WSW 4mph /  6.4km/h 6mph /  9.7km/h 91% 0in /  0.0mm 28 W/m2
08:51 43.9 °F /  6.6 °C 41.4 °F /  5.2 °C 30.1in /  1020.0hPa WSW 0.9mph /  1.4km/h 2mph /  3.2km/h 91% 0in /  0.0mm 35 W/m2
08:56 43.9 °F /  6.6 °C 41.4 °F /  5.2 °C 30.1in /  1020.0hPa West 2mph /  3.2km/h 8mph /  12.9km/h 91% 0in /  0.0mm 37 W/m2
09:01 44.1 °F /  6.7 °C 41.5 °F /  5.3 °C 30.1in /  1020.0hPa West 2mph /  3.2km/h 4mph /  6.4km/h 91% 0in /  0.0mm 47 W/m2
09:06 44.1 °F /  6.7 °C 41.5 °F /  5.3 °C 30.1in /  1020.3hPa Calm   8mph /  12.9km/h 91% 0in /  0.0mm 60 W/m2
09:11 44.1 °F /  6.7 °C 41.5 °F /  5.3 °C 30.1in /  1020.3hPa West 0.9mph /  1.4km/h 6mph /  9.7km/h 91% 0in /  0.0mm 62 W/m2
09:16 44.2 °F /  6.8 °C 41.5 °F /  5.3 °C 30.1in /  1020.7hPa WNW 0.9mph /  1.4km/h 7mph /  11.3km/h 90% 0in /  0.0mm 53 W/m2
09:21 44.2 °F /  6.8 °C 41.5 °F /  5.3 °C 30.1in /  1020.7hPa SW 4mph /  6.4km/h 8mph /  12.9km/h 90% 0in /  0.0mm 107 W/m2
09:26 44.4 °F /  6.9 °C 41.7 °F /  5.4 °C 30.1in /  1020.7hPa West 4mph /  6.4km/h 6mph /  9.7km/h 90% 0in /  0.0mm 77 W/m2
09:31 44.4 °F /  6.9 °C 41.7 °F /  5.4 °C 30.1in /  1020.7hPa West 2.9mph /  4.7km/h 3mph /  4.8km/h 90% 0in /  0.0mm 88 W/m2
09:36 44.6 °F /  7 °C 41.9 °F /  5.5 °C 30.1in /  1020.7hPa SSW 2mph /  3.2km/h 4mph /  6.4km/h 90% 0in /  0.0mm 67 W/m2
09:41 44.8 °F /  7.1 °C 42.1 °F /  5.6 °C 30.2in /  1021.0hPa West 4mph /  6.4km/h 4mph /  6.4km/h 90% 0in /  0.0mm 90 W/m2
09:46 44.8 °F /  7.1 °C 41.7 °F /  5.4 °C 30.2in /  1021.0hPa NW 2mph /  3.2km/h 4mph /  6.4km/h 89% 0in /  0.0mm 76 W/m2
09:51 45 °F /  7.2 °C 41.9 °F /  5.5 °C 30.2in /  1021.0hPa WNW 2mph /  3.2km/h 8mph /  12.9km/h 89% 0in /  0.0mm 63 W/m2
09:56 45 °F /  7.2 °C 41.9 °F /  5.5 °C 30.2in /  1021.0hPa NW 2mph /  3.2km/h 2mph /  3.2km/h 89% 0in /  0.0mm 62 W/m2
10:01 45 °F /  7.2 °C 41.9 °F /  5.5 °C 30.2in /  1021.0hPa West 4mph /  6.4km/h 9mph /  14.5km/h 89% 0in /  0.0mm 60 W/m2
10:06 45 °F /  7.2 °C 41.9 °F /  5.5 °C 30.2in /  1021.0hPa NW 2mph /  3.2km/h 4mph /  6.4km/h 89% 0in /  0.0mm 58 W/m2
10:12 45 °F /  7.2 °C 41.9 °F /  5.5 °C 30.2in /  1021.0hPa WNW 0.9mph /  1.4km/h 3mph /  4.8km/h 89% 0in /  0.0mm 63 W/m2
10:17 45.1 °F /  7.3 °C 42.1 °F /  5.6 °C 30.2in /  1021.0hPa NW 0.9mph /  1.4km/h 4mph /  6.4km/h 89% 0in /  0.0mm 91 W/m2
10:22 45.1 °F /  7.3 °C 42.1 °F /  5.6 °C 30.2in /  1021.0hPa West 4mph /  6.4km/h 5mph /  8km/h 89% 0in /  0.0mm 128 W/m2
10:27 45.3 °F /  7.4 °C 42.3 °F /  5.7 °C 30.2in /  1021.3hPa Calm   2mph /  3.2km/h 89% 0in /  0.0mm 123 W/m2
10:32 45.5 °F /  7.5 °C 42.1 °F /  5.6 °C 30.2in /  1021.3hPa WNW 2.9mph /  4.7km/h 10mph /  16.1km/h 88% 0in /  0.0mm 88 W/m2
10:37 45.7 °F /  7.6 °C 42.3 °F /  5.7 °C 30.2in /  1021.7hPa West 6.9mph /  11.1km/h 11mph /  17.7km/h 88% 0in /  0.0mm 105 W/m2
10:42 45.7 °F /  7.6 °C 42.3 °F /  5.7 °C 30.2in /  1021.7hPa West 6.9mph /  11.1km/h 7mph /  11.3km/h 88% 0in /  0.0mm 104 W/m2
10:47 45.9 °F /  7.7 °C 42.4 °F /  5.8 °C 30.2in /  1021.7hPa SW 0.9mph /  1.4km/h 11mph /  17.7km/h 88% 0in /  0.0mm 111 W/m2
10:52 45.9 °F /  7.7 °C 42.3 °F /  5.7 °C 30.2in /  1022.0hPa WSW 4mph /  6.4km/h 5mph /  8km/h 87% 0in /  0.0mm 109 W/m2
10:57 46 °F /  7.8 °C 42.4 °F /  5.8 °C 30.2in /  1022.0hPa WNW 8.9mph /  14.3km/h 11mph /  17.7km/h 87% 0in /  0.0mm 111 W/m2
11:02 46 °F /  7.8 °C 42.4 °F /  5.8 °C 30.2in /  1022.0hPa WSW 2.9mph /  4.7km/h 6mph /  9.7km/h 87% 0in /  0.0mm 98 W/m2
11:07 46.2 °F /  7.9 °C 42.6 °F /  5.9 °C 30.2in /  1022.0hPa West 2mph /  3.2km/h 6mph /  9.7km/h 87% 0in /  0.0mm 93 W/m2
11:12 46.2 °F /  7.9 °C 42.3 °F /  5.7 °C 30.2in /  1022.4hPa West 2.9mph /  4.7km/h 7mph /  11.3km/h 86% 0in /  0.0mm 100 W/m2
11:17 46.6 °F /  8.1 °C 42.3 °F /  5.7 °C 30.2in /  1022.4hPa WNW 2mph /  3.2km/h 7mph /  11.3km/h 85% 0in /  0.0mm 104 W/m2
11:22 46.6 °F /  8.1 °C 42.3 °F /  5.7 °C 30.2in /  1022.4hPa WNW 2mph /  3.2km/h 4mph /  6.4km/h 85% 0in /  0.0mm 125 W/m2
11:27 46.8 °F /  8.2 °C 42.8 °F /  6 °C 30.2in /  1022.4hPa Calm   1mph /  1.6km/h 86% 0in /  0.0mm 142 W/m2
11:32 46.8 °F /  8.2 °C 42.4 °F /  5.8 °C 30.2in /  1022.4hPa WNW 2mph /  3.2km/h 6mph /  9.7km/h 85% 0in /  0.0mm 109 W/m2
11:37 46.8 °F /  8.2 °C 42.4 °F /  5.8 °C 30.2in /  1022.4hPa WNW 2.9mph /  4.7km/h 7mph /  11.3km/h 85% 0in /  0.0mm 179 W/m2
11:42 46.9 °F /  8.3 °C 42.6 °F /  5.9 °C 30.2in /  1022.4hPa West 4mph /  6.4km/h 8mph /  12.9km/h 85% 0in /  0.0mm 213 W/m2
11:47 47.3 °F /  8.5 °C 42.8 °F /  6 °C 30.2in /  1022.4hPa WSW 4mph /  6.4km/h 6mph /  9.7km/h 84% 0in /  0.0mm 155 W/m2
11:52 47.5 °F /  8.6 °C 42.8 °F /  6 °C 30.2in /  1022.4hPa SW 2.9mph /  4.7km/h 11mph /  17.7km/h 84% 0in /  0.0mm 97 W/m2
11:57 47.5 °F /  8.6 °C 42.6 °F /  5.9 °C 30.2in /  1022.7hPa West 6.9mph /  11.1km/h 10mph /  16.1km/h 83% 0in /  0.0mm 220 W/m2
12:02 47.5 °F /  8.6 °C 42.6 °F /  5.9 °C 30.2in /  1022.4hPa WNW 2.9mph /  4.7km/h 6mph /  9.7km/h 83% 0in /  0.0mm 229 W/m2
12:08 47.7 °F /  8.7 °C 42.8 °F /  6 °C 30.2in /  1022.4hPa WSW 8.1mph /  13km/h 11mph /  17.7km/h 83% 0in /  0.0mm 107 W/m2
12:13 47.7 °F /  8.7 °C 42.4 °F /  5.8 °C 30.2in /  1022.4hPa WNW 4.9mph /  7.9km/h 10mph /  16.1km/h 82% 0in /  0.0mm 135 W/m2
12:18 47.8 °F /  8.8 °C 42.6 °F /  5.9 °C 30.2in /  1022.4hPa WNW 6.9mph /  11.1km/h 11mph /  17.7km/h 82% 0in /  0.0mm 455 W/m2
12:23 48 °F /  8.9 °C 42.4 °F /  5.8 °C 30.2in /  1022.4hPa WSW 4.9mph /  7.9km/h 11mph /  17.7km/h 81% 0in /  0.0mm 148 W/m2
12:28 48.2 °F /  9 °C 42.6 °F /  5.9 °C 30.2in /  1022.4hPa West 2.9mph /  4.7km/h 10mph /  16.1km/h 81% 0in /  0.0mm 186 W/m2
12:33 48.2 °F /  9 °C 42.6 °F /  5.9 °C 30.2in /  1022.4hPa WNW 2mph /  3.2km/h 6mph /  9.7km/h 81% 0in /  0.0mm 137 W/m2
12:38 48.4 °F /  9.1 °C 42.8 °F /  6 °C 30.2in /  1022.4hPa WSW 2mph /  3.2km/h 9mph /  14.5km/h 81% 0in /  0.0mm 272 W/m2
12:43 48.4 °F /  9.1 °C 43.2 °F /  6.2 °C 30.2in /  1022.4hPa WNW 10.1mph /  16.3km/h 10mph /  16.1km/h 82% 0in /  0.0mm 98 W/m2
12:48 48.4 °F /  9.1 °C 42.8 °F /  6 °C 30.2in /  1022.4hPa WSW 4.9mph /  7.9km/h 7mph /  11.3km/h 81% 0in /  0.0mm 120 W/m2
12:53 48.4 °F /  9.1 °C 43.2 °F /  6.2 °C 30.2in /  1022.4hPa WSW 8.1mph /  13km/h 9mph /  14.5km/h 82% 0in /  0.0mm 176 W/m2
12:58 48.4 °F /  9.1 °C 43.2 °F /  6.2 °C 30.2in /  1022.4hPa West 6mph /  9.7km/h 8mph /  12.9km/h 82% 0in /  0.0mm 91 W/m2
13:03 48.4 °F /  9.1 °C 42.8 °F /  6 °C 30.2in /  1022.4hPa West 4mph /  6.4km/h 6mph /  9.7km/h 81% 0in /  0.0mm 97 W/m2
13:08 48.4 °F /  9.1 °C 42.8 °F /  6 °C 30.2in /  1022.4hPa SW 2.9mph /  4.7km/h 7mph /  11.3km/h 81% 0in /  0.0mm 63 W/m2
13:13 48.4 °F /  9.1 °C 42.8 °F /  6 °C 30.2in /  1022.4hPa Calm   3mph /  4.8km/h 81% 0in /  0.0mm 135 W/m2
13:18 48.6 °F /  9.2 °C 43 °F /  6.1 °C 30.2in /  1022.4hPa WNW 0.9mph /  1.4km/h 2mph /  3.2km/h 81% 0in /  0.0mm 158 W/m2
13:23 48.7 °F /  9.3 °C 43.2 °F /  6.2 °C 30.2in /  1022.4hPa NW 2mph /  3.2km/h 4mph /  6.4km/h 81% 0in /  0.0mm 172 W/m2
13:28 48.9 °F /  9.4 °C 43 °F /  6.1 °C 30.2in /  1022.4hPa WNW 6mph /  9.7km/h 7mph /  11.3km/h 80% 0in /  0.0mm 232 W/m2
13:33 49.3 °F /  9.6 °C 43 °F /  6.1 °C 30.2in /  1022.4hPa West 2.9mph /  4.7km/h 4mph /  6.4km/h 79% 0in /  0.0mm 223 W/m2
13:38 49.6 °F /  9.8 °C 43.3 °F /  6.3 °C 30.2in /  1022.4hPa WSW 2mph /  3.2km/h 11mph /  17.7km/h 79% 0in /  0.0mm 141 W/m2
13:43 49.6 °F /  9.8 °C 43.3 °F /  6.3 °C 30.2in /  1022.4hPa WNW 2mph /  3.2km/h 4mph /  6.4km/h 79% 0in /  0.0mm 91 W/m2
13:48 49.5 °F /  9.7 °C 42.8 °F /  6 °C 30.2in /  1022.4hPa WNW 4.9mph /  7.9km/h 11mph /  17.7km/h 78% 0in /  0.0mm 58 W/m2
13:53 49.5 °F /  9.7 °C 42.6 °F /  5.9 °C 30.2in /  1022.4hPa WSW 6mph /  9.7km/h 7mph /  11.3km/h 77% 0in /  0.0mm 56 W/m2
13:58 49.3 °F /  9.6 °C 42.4 °F /  5.8 °C 30.2in /  1022.7hPa WSW 4mph /  6.4km/h 9mph /  14.5km/h 77% 0in /  0.0mm 84 W/m2
14:03 49.3 °F /  9.6 °C 42.8 °F /  6 °C 30.2in /  1022.7hPa West 0.9mph /  1.4km/h 7mph /  11.3km/h 78% 0in /  0.0mm 67 W/m2
14:08 49.3 °F /  9.6 °C 42.8 °F /  6 °C 30.2in /  1022.7hPa WSW 2.9mph /  4.7km/h 9mph /  14.5km/h 78% 0in /  0.0mm 63 W/m2
14:13 49.3 °F /  9.6 °C 43 °F /  6.1 °C 30.2in /  1022.7hPa WSW 2.9mph /  4.7km/h 3mph /  4.8km/h 79% 0in /  0.0mm 74 W/m2
14:18 49.3 °F /  9.6 °C 43 °F /  6.1 °C 30.2in /  1022.7hPa WNW 2mph /  3.2km/h 5mph /  8km/h 79% 0in /  0.0mm 62 W/m2
14:23 49.3 °F /  9.6 °C 43 °F /  6.1 °C 30.2in /  1022.4hPa WNW 2mph /  3.2km/h 2mph /  3.2km/h 79% 0in /  0.0mm 86 W/m2
14:28 49.3 °F /  9.6 °C 43.3 °F /  6.3 °C 30.2in /  1022.7hPa WNW 2mph /  3.2km/h 3mph /  4.8km/h 80% 0in /  0.0mm 121 W/m2
14:33 49.5 °F /  9.7 °C 43.5 °F /  6.4 °C 30.2in /  1022.7hPa NW 2.9mph /  4.7km/h 8mph /  12.9km/h 80% 0in /  0.0mm 84 W/m2
14:38 49.5 °F /  9.7 °C 43.5 °F /  6.4 °C 30.2in /  1022.7hPa WSW 2mph /  3.2km/h 6mph /  9.7km/h 80% 0in /  0.0mm 144 W/m2
14:43 49.5 °F /  9.7 °C 43.5 °F /  6.4 °C 30.2in /  1022.7hPa West 2.9mph /  4.7km/h 3mph /  4.8km/h 80% 0in /  0.0mm 183 W/m2
14:48 49.5 °F /  9.7 °C 43.5 °F /  6.4 °C 30.2in /  1022.7hPa NW 2.9mph /  4.7km/h 6mph /  9.7km/h 80% 0in /  0.0mm 127 W/m2
14:53 49.6 °F /  9.8 °C 43.7 °F /  6.5 °C 30.2in /  1022.7hPa Calm   2mph /  3.2km/h 80% 0in /  0.0mm 120 W/m2
14:58 49.6 °F /  9.8 °C 43.7 °F /  6.5 °C 30.2in /  1022.7hPa SW 0.9mph /  1.4km/h 7mph /  11.3km/h 80% 0in /  0.0mm 100 W/m2
15:03 49.6 °F /  9.8 °C 43.7 °F /  6.5 °C 30.2in /  1022.7hPa West 2mph /  3.2km/h 2mph /  3.2km/h 80% 0in /  0.0mm 70 W/m2
15:08 49.6 °F /  9.8 °C 43.7 °F /  6.5 °C 30.2in /  1022.7hPa SSW 0.9mph /  1.4km/h 7mph /  11.3km/h 80% 0in /  0.0mm 69 W/m2
15:13 49.6 °F /  9.8 °C 43.7 °F /  6.5 °C 30.2in /  1022.7hPa Calm   1mph /  1.6km/h 80% 0in /  0.0mm 67 W/m2
15:18 49.6 °F /  9.8 °C 43.7 °F /  6.5 °C 30.2in /  1022.7hPa WNW 6.9mph /  11.1km/h 7mph /  11.3km/h 80% 0in /  0.0mm 77 W/m2
15:23 49.6 °F /  9.8 °C 43.7 °F /  6.5 °C 30.2in /  1022.7hPa WNW 0.9mph /  1.4km/h 6mph /  9.7km/h 80% 0in /  0.0mm 121 W/m2
15:28 49.6 °F /  9.8 °C 43.7 °F /  6.5 °C 30.2in /  1022.7hPa Calm   1mph /  1.6km/h 80% 0in /  0.0mm 113 W/m2
15:33 49.6 °F /  9.8 °C 43.7 °F /  6.5 °C 30.2in /  1022.7hPa WSW 0.9mph /  1.4km/h 2mph /  3.2km/h 80% 0in /  0.0mm 83 W/m2
15:38 49.8 °F /  9.9 °C 43.9 °F /  6.6 °C 30.2in /  1022.7hPa WSW 0.9mph /  1.4km/h 6mph /  9.7km/h 80% 0in /  0.0mm 60 W/m2
15:43 49.8 °F /  9.9 °C 43.5 °F /  6.4 °C 30.2in /  1023.0hPa Calm     79% 0in /  0.0mm 84 W/m2
15:48 49.8 °F /  9.9 °C 43.5 °F /  6.4 °C 30.2in /  1023.0hPa West 2mph /  3.2km/h 6mph /  9.7km/h 79% 0in /  0.0mm 88 W/m2
15:53 49.8 °F /  9.9 °C 43.5 °F /  6.4 °C 30.2in /  1023.0hPa West 4mph /  6.4km/h 4mph /  6.4km/h 79% 0in /  0.0mm 76 W/m2
15:58 49.8 °F /  9.9 °C 43.5 °F /  6.4 °C 30.2in /  1023.0hPa West 2mph /  3.2km/h 5mph /  8km/h 79% 0in /  0.0mm 62 W/m2
16:03 49.8 °F /  9.9 °C 43.5 °F /  6.4 °C 30.2in /  1023.0hPa Calm   2mph /  3.2km/h 79% 0in /  0.0mm 62 W/m2
16:08 49.8 °F /  9.9 °C 43.5 °F /  6.4 °C 30.2in /  1023.0hPa West 2.9mph /  4.7km/h 6mph /  9.7km/h 79% 0in /  0.0mm 62 W/m2
16:13 49.8 °F /  9.9 °C 43.5 °F /  6.4 °C 30.2in /  1023.0hPa SSW 2mph /  3.2km/h 3mph /  4.8km/h 79% 0in /  0.0mm 54 W/m2
16:18 49.8 °F /  9.9 °C 43.5 °F /  6.4 °C 30.2in /  1023.4hPa NNW 2mph /  3.2km/h 4mph /  6.4km/h 79% 0in /  0.0mm 42 W/m2
16:23 49.8 °F /  9.9 °C 43.9 °F /  6.6 °C 30.2in /  1023.0hPa Calm   3mph /  4.8km/h 80% 0in /  0.0mm 39 W/m2
16:28 49.6 °F /  9.8 °C 43.7 °F /  6.5 °C 30.2in /  1023.4hPa Calm   4mph /  6.4km/h 80% 0in /  0.0mm 40 W/m2
16:33 49.6 °F /  9.8 °C 43.7 °F /  6.5 °C 30.2in /  1023.0hPa SE 2mph /  3.2km/h 2mph /  3.2km/h 80% 0in /  0.0mm 53 W/m2
16:38 49.6 °F /  9.8 °C 43.7 °F /  6.5 °C 30.2in /  1023.0hPa WNW 2mph /  3.2km/h 4mph /  6.4km/h 80% 0in /  0.0mm 39 W/m2
16:43 49.6 °F /  9.8 °C 43.7 °F /  6.5 °C 30.2in /  1023.0hPa Calm   1mph /  1.6km/h 80% 0in /  0.0mm 40 W/m2
16:48 49.6 °F /  9.8 °C 43.7 °F /  6.5 °C 30.2in /  1023.0hPa Calm   2mph /  3.2km/h 80% 0in /  0.0mm 39 W/m2
16:53 49.6 °F /  9.8 °C 44.1 °F /  6.7 °C 30.2in /  1023.4hPa NNE 0.9mph /  1.4km/h 2mph /  3.2km/h 81% 0in /  0.0mm 28 W/m2
16:58 49.6 °F /  9.8 °C 43.7 °F /  6.5 °C 30.2in /  1023.4hPa West 0.9mph /  1.4km/h 2mph /  3.2km/h 80% 0in /  0.0mm 26 W/m2
17:03 49.5 °F /  9.7 °C 43.5 °F /  6.4 °C 30.2in /  1023.4hPa Calm   2mph /  3.2km/h 80% 0in /  0.0mm 26 W/m2
17:08 49.5 °F /  9.7 °C 43.5 °F /  6.4 °C 30.2in /  1023.4hPa WNW 4mph /  6.4km/h 7mph /  11.3km/h 80% 0in /  0.0mm 23 W/m2
17:13 49.5 °F /  9.7 °C 43.5 °F /  6.4 °C 30.2in /  1023.4hPa Calm   1mph /  1.6km/h 80% 0in /  0.0mm 25 W/m2
17:18 49.5 °F /  9.7 °C 43.5 °F /  6.4 °C 30.2in /  1023.4hPa Calm   6mph /  9.7km/h 80% 0in /  0.0mm 25 W/m2
17:23 49.5 °F /  9.7 °C 43.5 °F /  6.4 °C 30.2in /  1023.4hPa ESE 0.9mph /  1.4km/h 2mph /  3.2km/h 80% 0in /  0.0mm 23 W/m2
17:28 49.5 °F /  9.7 °C 43.5 °F /  6.4 °C 30.2in /  1023.4hPa WNW 2mph /  3.2km/h 6mph /  9.7km/h 80% 0in /  0.0mm 19 W/m2
17:33 49.5 °F /  9.7 °C 43.5 °F /  6.4 °C 30.2in /  1023.4hPa West 2mph /  3.2km/h 2mph /  3.2km/h 80% 0in /  0.0mm 16 W/m2
17:38 49.3 °F /  9.6 °C 43.3 °F /  6.3 °C 30.2in /  1023.4hPa Calm   1mph /  1.6km/h 80% 0in /  0.0mm 11 W/m2
17:43 49.3 °F /  9.6 °C 43.3 °F /  6.3 °C 30.2in /  1023.4hPa Calm     80% 0in /  0.0mm 7 W/m2
17:48 49.1 °F /  9.5 °C 43.5 °F /  6.4 °C 30.2in /  1023.4hPa ESE 0.9mph /  1.4km/h 1mph /  1.6km/h 81% 0in /  0.0mm 0 W/m2
17:53 48.9 °F /  9.4 °C 43.3 °F /  6.3 °C 30.2in /  1023.4hPa Calm     81% 0in /  0.0mm 0 W/m2
17:58 48.9 °F /  9.4 °C 43.7 °F /  6.5 °C 30.2in /  1023.4hPa Calm   1mph /  1.6km/h 82% 0in /  0.0mm 0 W/m2
18:03 48.7 °F /  9.3 °C 43.5 °F /  6.4 °C 30.2in /  1023.4hPa Calm     82% 0in /  0.0mm 0 W/m2
18:08 48.7 °F /  9.3 °C 43.9 °F /  6.6 °C 30.2in /  1023.7hPa SW 2.9mph /  4.7km/h 3mph /  4.8km/h 83% 0in /  0.0mm 0 W/m2
18:13 48.7 °F /  9.3 °C 43.9 °F /  6.6 °C 30.2in /  1023.7hPa West 2mph /  3.2km/h 4mph /  6.4km/h 83% 0in /  0.0mm 0 W/m2
18:18 48.7 °F /  9.3 °C 43.5 °F /  6.4 °C 30.2in /  1023.7hPa Calm   3mph /  4.8km/h 82% 0in /  0.0mm 0 W/m2
18:23 48.6 °F /  9.2 °C 43.7 °F /  6.5 °C 30.2in /  1023.7hPa Calm     83% 0in /  0.0mm 0 W/m2
18:28 48.4 °F /  9.1 °C 43.5 °F /  6.4 °C 30.2in /  1024.0hPa Calm   3mph /  4.8km/h 83% 0in /  0.0mm 0 W/m2
18:33 47.8 °F /  8.8 °C 43 °F /  6.1 °C 30.2in /  1024.0hPa Calm     83% 0in /  0.0mm 0 W/m2
18:38 47.5 °F /  8.6 °C 42.8 °F /  6 °C 30.2in /  1024.0hPa SW 0.9mph /  1.4km/h 2mph /  3.2km/h 84% 0in /  0.0mm 0 W/m2
18:43 47.1 °F /  8.4 °C 42.8 °F /  6 °C 30.3in /  1024.4hPa Calm     85% 0in /  0.0mm 0 W/m2
18:48 46.9 °F /  8.3 °C 42.6 °F /  5.9 °C 30.3in /  1024.4hPa Calm     85% 0in /  0.0mm 0 W/m2
18:53 46.9 °F /  8.3 °C 43 °F /  6.1 °C 30.3in /  1024.4hPa Calm     86% 0in /  0.0mm 0 W/m2
18:58 46.8 °F /  8.2 °C 42.8 °F /  6 °C 30.3in /  1024.4hPa Calm     86% 0in /  0.0mm 0 W/m2
19:03 46.8 °F /  8.2 °C 42.8 °F /  6 °C 30.3in /  1024.4hPa Calm     86% 0in /  0.0mm 0 W/m2
19:09 46.6 °F /  8.1 °C 43 °F /  6.1 °C 30.3in /  1024.7hPa Calm     87% 0in /  0.0mm 0 W/m2
19:14 46.2 °F /  7.9 °C 42.6 °F /  5.9 °C 30.3in /  1024.7hPa Calm     87% 0in /  0.0mm 0 W/m2
19:19 46 °F /  7.8 °C 42.4 °F /  5.8 °C 30.3in /  1024.4hPa SW 0.9mph /  1.4km/h 1mph /  1.6km/h 87% 0in /  0.0mm 0 W/m2
19:24 45.9 °F /  7.7 °C 42.4 °F /  5.8 °C 30.3in /  1024.7hPa Calm   1mph /  1.6km/h 88% 0in /  0.0mm 0 W/m2
19:29 45.7 °F /  7.6 °C 42.3 °F /  5.7 °C 30.3in /  1024.7hPa Calm     88% 0in /  0.0mm 0 W/m2
19:34 45.3 °F /  7.4 °C 41.9 °F /  5.5 °C 30.3in /  1024.7hPa Calm   1mph /  1.6km/h 88% 0in /  0.0mm 0 W/m2
19:39 45 °F /  7.2 °C 41.5 °F /  5.3 °C 30.3in /  1024.7hPa Calm     88% 0in /  0.0mm 0 W/m2
19:44 44.8 °F /  7.1 °C 41.4 °F /  5.2 °C 30.3in /  1024.7hPa Calm     88% 0in /  0.0mm 0 W/m2
19:49 44.6 °F /  7 °C 41.5 °F /  5.3 °C 30.3in /  1024.7hPa Calm     89% 0in /  0.0mm 0 W/m2
19:54 44.2 °F /  6.8 °C 41.2 °F /  5.1 °C 30.3in /  1024.7hPa Calm     89% 0in /  0.0mm 0 W/m2
19:59 44.1 °F /  6.7 °C 41 °F /  5 °C 30.3in /  1024.7hPa Calm     89% 0in /  0.0mm 0 W/m2
20:04 43.9 °F /  6.6 °C 40.8 °F /  4.9 °C 30.3in /  1024.7hPa Calm     89% 0in /  0.0mm 0 W/m2
20:09 43.9 °F /  6.6 °C 41.2 °F /  5.1 °C 30.3in /  1024.7hPa Calm     90% 0in /  0.0mm 0 W/m2
20:14 43.9 °F /  6.6 °C 41.4 °F /  5.2 °C 30.3in /  1024.7hPa Calm     91% 0in /  0.0mm 0 W/m2
20:19 43.9 °F /  6.6 °C 41.4 °F /  5.2 °C 30.3in /  1025.1hPa Calm     91% 0in /  0.0mm 0 W/m2
20:24 44.1 °F /  6.7 °C 41.5 °F /  5.3 °C 30.3in /  1025.1hPa South 2mph /  3.2km/h 2mph /  3.2km/h 91% 0in /  0.0mm 0 W/m2
20:29 44.1 °F /  6.7 °C 41.5 °F /  5.3 °C 30.3in /  1025.1hPa Calm     91% 0in /  0.0mm 0 W/m2
20:34 44.1 °F /  6.7 °C 41.5 °F /  5.3 °C 30.3in /  1024.7hPa Calm     91% 0in /  0.0mm 0 W/m2
20:39 43.9 °F /  6.6 °C 41.4 °F /  5.2 °C 30.3in /  1025.1hPa Calm     91% 0in /  0.0mm 0 W/m2
20:44 43.7 °F /  6.5 °C 41.2 °F /  5.1 °C 30.3in /  1025.1hPa Calm     91% 0in /  0.0mm 0 W/m2
20:49 43.5 °F /  6.4 °C 41 °F /  5 °C 30.3in /  1025.1hPa Calm     91% 0in /  0.0mm 0 W/m2
20:54 43.3 °F /  6.3 °C 40.8 °F /  4.9 °C 30.3in /  1025.1hPa Calm     91% 0in /  0.0mm 0 W/m2
20:59 43.3 °F /  6.3 °C 40.8 °F /  4.9 °C 30.3in /  1025.1hPa Calm     91% 0in /  0.0mm 0 W/m2
21:04 43 °F /  6.1 °C 40.5 °F /  4.7 °C 30.3in /  1025.1hPa Calm     91% 0in /  0.0mm 0 W/m2
21:09 43 °F /  6.1 °C 40.5 °F /  4.7 °C 30.3in /  1025.4hPa Calm     91% 0in /  0.0mm 0 W/m2
21:15 42.6 °F /  5.9 °C 40.1 °F /  4.5 °C 30.3in /  1025.4hPa Calm   1mph /  1.6km/h 91% 0in /  0.0mm 0 W/m2
21:20 42.6 °F /  5.9 °C 40.5 °F /  4.7 °C 30.3in /  1025.4hPa Calm     92% 0in /  0.0mm 0 W/m2
21:25 42.6 °F /  5.9 °C 40.5 °F /  4.7 °C 30.3in /  1025.4hPa Calm     92% 0in /  0.0mm 0 W/m2
21:30 42.4 °F /  5.8 °C 40.3 °F /  4.6 °C 30.3in /  1025.4hPa Calm     92% 0in /  0.0mm 0 W/m2
21:35 42.4 °F /  5.8 °C 40.3 °F /  4.6 °C 30.3in /  1025.4hPa Calm     92% 0in /  0.0mm 0 W/m2
21:40 42.4 °F /  5.8 °C 40.3 °F /  4.6 °C 30.3in /  1025.4hPa Calm     92% 0in /  0.0mm 0 W/m2
21:45 42.4 °F /  5.8 °C 40.3 °F /  4.6 °C 30.3in /  1025.4hPa Calm     92% 0in /  0.0mm 0 W/m2
21:50 42.3 °F /  5.7 °C 40.5 °F /  4.7 °C 30.3in /  1025.4hPa ESE 0.9mph /  1.4km/h 2mph /  3.2km/h 93% 0in /  0.0mm 0 W/m2
21:55 42.4 °F /  5.8 °C 40.6 °F /  4.8 °C 30.3in /  1025.4hPa Calm     93% 0in /  0.0mm 0 W/m2
22:00 42.4 °F /  5.8 °C 40.6 °F /  4.8 °C 30.3in /  1025.4hPa Calm     93% 0in /  0.0mm 0 W/m2
22:05 42.4 °F /  5.8 °C 40.6 °F /  4.8 °C 30.3in /  1025.4hPa Calm     93% 0in /  0.0mm 0 W/m2
22:10 42.4 °F /  5.8 °C 40.6 °F /  4.8 °C 30.3in /  1025.4hPa ESE 0.9mph /  1.4km/h 1mph /  1.6km/h 93% 0in /  0.0mm 0 W/m2
22:15 42.4 °F /  5.8 °C 40.6 °F /  4.8 °C 30.3in /  1025.4hPa Calm     93% 0in /  0.0mm 0 W/m2
22:20 42.4 °F /  5.8 °C 40.6 °F /  4.8 °C 30.3in /  1025.4hPa Calm   1mph /  1.6km/h 93% 0in /  0.0mm 0 W/m2
22:25 42.4 °F /  5.8 °C 40.6 °F /  4.8 °C 30.3in /  1025.4hPa Calm     93% 0in /  0.0mm 0 W/m2
22:30 42.4 °F /  5.8 °C 40.6 °F /  4.8 °C 30.3in /  1025.4hPa Calm   1mph /  1.6km/h 93% 0in /  0.0mm 0 W/m2
22:35 42.4 °F /  5.8 °C 40.6 °F /  4.8 °C 30.3in /  1025.4hPa Calm     93% 0in /  0.0mm 0 W/m2
22:41 42.4 °F /  5.8 °C 40.6 °F /  4.8 °C 30.3in /  1025.1hPa Calm     93% 0in /  0.0mm 0 W/m2
22:46 42.6 °F /  5.9 °C 40.8 °F /  4.9 °C 30.3in /  1025.1hPa Calm   2mph /  3.2km/h 93% 0in /  0.0mm 0 W/m2
22:51 42.6 °F /  5.9 °C 41 °F /  5 °C 30.3in /  1025.1hPa Calm     94% 0in /  0.0mm 0 W/m2
22:56 42.6 °F /  5.9 °C 41 °F /  5 °C 30.3in /  1025.1hPa Calm     94% 0in /  0.0mm 0 W/m2
23:01 42.8 °F /  6 °C 41.2 °F /  5.1 °C 30.3in /  1025.1hPa Calm     94% 0in /  0.0mm 0 W/m2
23:06 42.8 °F /  6 °C 41.2 °F /  5.1 °C 30.3in /  1025.1hPa Calm     94% 0in /  0.0mm 0 W/m2
23:11 43 °F /  6.1 °C 41.4 °F /  5.2 °C 30.3in /  1025.1hPa Calm     94% 0in /  0.0mm 0 W/m2
23:16 43 °F /  6.1 °C 41.4 °F /  5.2 °C 30.3in /  1025.1hPa Calm     94% 0in /  0.0mm 0 W/m2
23:21 43 °F /  6.1 °C 41.4 °F /  5.2 °C 30.3in /  1025.1hPa Calm     94% 0in /  0.0mm 0 W/m2
23:26 43.2 °F /  6.2 °C 41.5 °F /  5.3 °C 30.3in /  1025.1hPa Calm     94% 0in /  0.0mm 0 W/m2
23:31 43.2 °F /  6.2 °C 41.5 °F /  5.3 °C 30.3in /  1025.1hPa Calm     94% 0in /  0.0mm 0 W/m2
23:36 43.2 °F /  6.2 °C 41.4 °F /  5.2 °C 30.3in /  1024.7hPa ESE 0.9mph /  1.4km/h 2mph /  3.2km/h 93% 0in /  0.0mm 0 W/m2
23:41 43.2 °F /  6.2 °C 41.4 °F /  5.2 °C 30.3in /  1024.7hPa Calm     93% 0in /  0.0mm 0 W/m2
23:46 43.3 °F /  6.3 °C 41.7 °F /  5.4 °C 30.3in /  1024.7hPa Calm     94% 0in /  0.0mm 0 W/m2
23:51 43.3 °F /  6.3 °C 41.5 °F /  5.3 °C 30.3in /  1024.7hPa East 2mph /  3.2km/h 2mph /  3.2km/h 93% 0in /  0.0mm 0 W/m2
23:56 43.5 °F /  6.4 °C 41.7 °F /  5.4 °C 30.3in /  1024.7hPa Calm   1mph /  1.6km/h 93% 0in /  0.0mm 0 W/m2
Juneau County Weather
Compliments of Weather Underground - 4 mb